Flight Track Log - Related Links

Times and Time Zones

All times are in EDT time to prevent confusion due to time zone crossing. See the UCA3599 flight status page for this flight to view local times or setup timezone preferences in your user account.

Time Position Orientation Groundspeed Altitude Reporting Facility
EDT Latitude Longitude Course Direction KTS MPH feet Rate Location/Type
Fri 06:08:26 AM 42.2433 -76.0481 216° Southwest 147 169 3,900  Level New York Center
Fri 06:09:26 AM 42.2042 -76.0869 216° Southwest 142 163 5,200 1,350 Climbing New York Center
Fri 06:10:26 AM 42.1567 -76.1222 209° Southwest 163 188 6,600 1,250 Climbing New York Center
Fri 06:11:26 AM 42.1111 -76.1661 216° Southwest 184 212 7,700 1,100 Climbing New York Center
Fri 06:12:26 AM 42.0617 -76.2011 208° Southwest 198 228 8,800 1,050 Climbing New York Center
Fri 06:13:26 AM 42.0117 -76.2444 213° Southwest 217 250 9,800 1,050 Climbing New York Center
Fri 06:14:26 AM 41.9642 -76.2797 209° Southwest 217 250 10,900 1,300 Climbing New York Center
Fri 06:15:26 AM 41.9100 -76.3253 212° Southwest 217 250 12,400 1,300 Climbing New York Center
Fri 06:16:26 AM 41.8622 -76.3658 212° Southwest 217 250 13,500 1,050 Climbing New York Center
Fri 06:17:26 AM 41.8125 -76.4061 211° Southwest 211 243 14,500 1,050 Climbing New York Center
Fri 06:18:26 AM 41.7672 -76.4414 210° Southwest 216 249 15,600 750 Climbing New York Center
Fri 06:19:26 AM 41.7153 -76.4786 208° Southwest 216 249 16,000 200 Climbing New York Center
Fri 06:20:26 AM 41.6547 -76.5289 212° Southwest 232 267 16,000  Level New York Center
Fri 06:21:26 AM 41.5961 -76.5739 210° Southwest 247 284 16,000  Level New York Center
Fri 06:22:26 AM 41.5356 -76.6214 210° Southwest 252 290 16,000  Level New York Center
Fri 06:23:26 AM 41.4817 -76.6608 209° Southwest 252 290 16,000  Level New York Center
Fri 06:24:26 AM 41.4186 -76.7133 212° Southwest 257 296 16,000  Level New York Center
Fri 06:25:26 AM 41.3600 -76.7608 211° Southwest 257 296 16,000 -50 Level New York Center
Fri 06:26:26 AM 41.2981 -76.7886 199° South 252 290 15,900  Descending New York Center
Fri 06:27:26 AM 41.2286 -76.8017 188° South 252 290 16,000 50 Climbing New York Center
Fri 06:28:26 AM 41.1572 -76.8144 188° South 252 290 16,000  Level New York Center
Fri 06:29:26 AM 41.0878 -76.8275 188° South 257 296 16,000 -50 Level New York Center
Fri 06:30:26 AM 41.0183 -76.8406 188° South 257 296 15,900 -50 Descending New York Center
Fri 06:31:26 AM 40.9508 -76.8539 188° South 257 296 15,900 50 Level New York Center
Fri 06:32:26 AM 40.8814 -76.8669 188° South 257 296 16,000 50 Climbing New York Center
Fri 06:33:26 AM 40.8183 -76.8778 187° South 257 296 16,000  Level New York Center
Fri 06:34:26 AM 40.7464 -76.8989 193° South 252 290 16,000  Level New York Center
Fri 06:35:26 AM 40.6872 -76.9181 194° South 252 290 16,000  Level New York Center
Fri 06:36:26 AM 40.6131 -76.9417 194° South 246 283 16,000  Level New York Center
Fri 06:37:26 AM 40.5536 -76.9608 194° South 246 283 16,000  Level New York Center
Fri 06:38:26 AM 40.4817 -76.9817 192° South 240 276 16,000  Level New York Center
Fri 06:39:26 AM 40.4203 -77.0006 193° South 240 276 16,000 -450 Level New York Center
Fri 06:40:26 AM 40.3439 -77.0236 193° South 250 288 15,100 -952 Descending New York Center
Fri 06:42:54 AM 40.1667 -77.0833 194° South 270 311 12,700 -980 Descending Potomac TRACON
Fri 06:43:48 AM 40.1000 -77.1000 191° South 265 305 11,800 -842 Descending Potomac TRACON
Fri 06:44:48 AM 40.0333 -77.1167 191° South 262 302 11,100 -526 Descending Potomac TRACON
Fri 06:45:42 AM 39.9667 -77.1333 191° South 244 281 10,800 -684 Descending Potomac TRACON
Fri 06:46:42 AM 39.9000 -77.1667 201° Southwest 271 312 9,800 -1,050 Descending Potomac TRACON
Fri 06:47:42 AM 39.8333 -77.2000 201° Southwest 265 305 8,700 -1,053 Descending Potomac TRACON
Fri 06:48:36 AM 39.7667 -77.2167 191° South 272 313 7,800 -947 Descending Potomac TRACON
Fri 06:49:36 AM 39.6833 -77.2500 197° South 260 299 6,900 -474 Descending Potomac TRACON
Fri 06:50:30 AM 39.6333 -77.2667 194° South 250 288 6,900  Level Potomac TRACON
Fri 06:51:24 AM 39.5667 -77.3000 201° Southwest 244 281 6,900 -211 Level Potomac TRACON
Fri 06:52:24 AM 39.5167 -77.3167 194° South 256 295 6,500 -450 Descending Potomac TRACON
Fri 06:53:24 AM 39.4333 -77.3500 197° South 260 299 6,000 -250 Descending Potomac TRACON
Fri 06:54:24 AM 39.3667 -77.3667 191° South 257 296 6,000 -209 Level Potomac TRACON
Fri 06:55:19 AM 39.3000 -77.3667 180° South 266 306 5,600 -550 Descending Potomac TRACON
Fri 06:56:13 AM 39.2333 -77.3667 180° South 270 311 5,000 -650 Descending Potomac TRACON
Fri 06:57:19 AM 39.1500 -77.3667 180° South 268 308 4,300 -476 Descending Potomac TRACON
Fri 06:58:19 AM 39.0833 -77.3500 169° South 266 306 4,000 -158 Descending Potomac TRACON
Fri 06:59:13 AM 39.0167 -77.3667 191° South 264 304 4,000  Level Potomac TRACON
Fri 07:00:13 AM 38.9500 -77.3500 169° South 269 310 4,000 -200 Level Potomac TRACON
Fri 07:01:13 AM 38.8667 -77.3667 189° South 255 293 3,600 -750 Descending Potomac TRACON
Fri 07:02:13 AM 38.8167 -77.4000 207° Southwest 238 274 2,500 -850 Descending Potomac TRACON
Fri 07:03:13 AM 38.8500 -77.4333 322° Northwest 152 175 1,900 -650 Descending Potomac TRACON
Fri 07:04:13 AM 38.8833 -77.4333 360° North 108 124 1,200 -650 Descending Potomac TRACON
Fri 07:05:13 AM 38.9167 -77.4333 360° North 104 120 600 -600 Descending Potomac TRACON

Login

Don't have an account? Register now (free) for customized features, flight alerts, and more!